Time;durP1;ratioP1;P1;durP2;ratioP2;P2;SDS_P1;SDS_P2;PMS_P1;PMS_P2;Temp;Humidity;BMP_temperature;BMP_pressure;BME280_temperature;BME280_humidity;BME280_pressure;Samples;Min_cycle;Max_cycle;Signal;HPM_P1;HPM_P2
2024/04/01 00:00:46;;;;;;;2.07;1.40;;;12.40;80.90;;;;;;4994583;28;20191;-85
2024/04/01 00:03:12;;;;;;;2.03;1.30;;;12.40;85.30;;;;;;4995180;28;20220;-84
2024/04/01 00:05:37;;;;;;;3.13;1.47;;;12.30;81.90;;;;;;5026980;28;20601;-84
2024/04/01 00:08:03;;;;;;;2.87;1.20;;;12.20;85.10;;;;;;4994567;28;20658;-84
2024/04/01 00:10:29;;;;;;;1.70;0.90;;;12.30;87.00;;;;;;4994972;28;20210;-85
2024/04/01 00:12:57;;;;;;;2.10;1.10;;;12.30;84.60;;;;;;4994475;28;20209;-85
2024/04/01 00:15:23;;;;;;;2.10;1.00;;;12.20;85.60;;;;;;4995616;28;20171;-84
2024/04/01 00:17:48;;;;;;;1.83;1.10;;;12.20;86.80;;;;;;4994776;28;20520;-85
2024/04/01 00:20:14;;;;;;;3.57;1.50;;;12.20;87.30;;;;;;4994323;28;20608;-85
2024/04/01 00:22:40;;;;;;;2.77;1.13;;;12.10;90.10;;;;;;4995945;28;20177;-84
2024/04/01 00:25:05;;;;;;;1.97;1.07;;;12.10;91.30;;;;;;4995907;28;20713;-83
2024/04/01 00:27:31;;;;;;;1.40;0.90;;;12.00;93.00;;;;;;4994356;28;20552;-86
2024/04/01 00:29:57;;;;;;;2.13;1.20;;;12.00;92.30;;;;;;4995350;28;20301;-86
2024/04/01 00:32:23;;;;;;;2.10;1.33;;;11.90;93.80;;;;;;5027742;28;20171;-85
2024/04/01 00:34:48;;;;;;;2.40;1.20;;;11.90;93.10;;;;;;4996987;28;20560;-85
2024/04/01 00:37:14;;;;;;;1.80;1.00;;;11.90;93.50;;;;;;4994826;28;20177;-84
2024/04/01 00:39:40;;;;;;;1.70;1.20;;;11.90;94.00;;;;;;4994392;28;20633;-85
2024/04/01 00:42:05;;;;;;;2.43;0.77;;;11.90;92.50;;;;;;4994077;28;20175;-83
2024/04/01 00:44:31;;;;;;;1.10;0.83;;;11.90;93.40;;;;;;5001482;28;20158;-84
2024/04/01 00:46:58;;;;;;;1.53;1.07;;;11.80;93.30;;;;;;5016358;28;20255;-84
2024/04/01 00:49:25;;;;;;;1.50;0.90;;;11.70;95.90;;;;;;5013387;28;20282;-83
2024/04/01 00:51:54;;;;;;;2.67;1.40;;;11.70;97.90;;;;;;5011989;28;20206;-85
2024/04/01 00:54:20;;;;;;;2.70;1.00;;;11.70;97.40;;;;;;4996229;28;20190;-83
2024/04/01 00:56:48;;;;;;;1.20;0.87;;;11.60;97.00;;;;;;4994574;28;20175;-84
2024/04/01 00:59:17;;;;;;;2.40;1.07;;;11.60;98.60;;;;;;4995809;28;20171;-84
2024/04/01 01:01:46;;;;;;;2.43;1.00;;;11.50;99.90;;;;;;4994061;28;20183;-84
2024/04/01 01:04:14;;;;;;;1.33;1.00;;;11.50;99.90;;;;;;4994437;28;20603;-85
2024/04/01 01:06:42;;;;;;;2.80;1.43;;;11.50;99.90;;;;;;4997836;28;20205;-84
2024/04/01 01:09:11;;;;;;;1.50;1.00;;;11.40;99.90;;;;;;4997617;28;20171;-86
2024/04/01 01:11:38;;;;;;;1.90;1.00;;;11.40;99.90;;;;;;4997912;28;20209;-84
2024/04/01 01:14:04;;;;;;;2.60;1.23;;;11.40;99.90;;;;;;4998086;28;20193;-83
2024/04/01 01:16:30;;;;;;;2.47;1.10;;;11.50;99.90;;;;;;5030425;28;20187;-85
2024/04/01 01:18:56;;;;;;;2.77;1.00;;;11.60;99.90;;;;;;5030566;28;20176;-85
2024/04/01 01:21:22;;;;;;;2.40;1.20;;;11.60;99.90;;;;;;4996892;28;20179;-84
2024/04/01 01:23:48;;;;;;;1.43;1.10;;;11.60;99.90;;;;;;4996834;28;20174;-85
2024/04/01 01:26:14;;;;;;;2.70;1.40;;;11.50;99.90;;;;;;4997132;28;20175;-85
2024/04/01 01:28:40;;;;;;;3.17;1.10;;;11.50;99.90;;;;;;4996719;28;20640;-83
2024/04/01 01:31:06;;;;;;;3.33;1.13;;;11.40;99.90;;;;;;4997323;28;20210;-84
2024/04/01 01:33:32;;;;;;;1.37;0.90;;;11.30;99.90;;;;;;4997931;28;20172;-84
2024/04/01 01:35:59;;;;;;;2.60;1.30;;;11.30;99.90;;;;;;4996899;28;20545;-85
2024/04/01 01:38:25;;;;;;;1.87;1.10;;;11.30;99.90;;;;;;4997704;28;20222;-84
2024/04/01 01:40:52;;;;;;;1.97;1.10;;;11.30;99.90;;;;;;4997610;28;20178;-85
2024/04/01 01:43:17;;;;;;;4.70;1.37;;;11.30;99.90;;;;;;4998136;28;20177;-84
2024/04/01 01:45:43;;;;;;;2.00;1.10;;;11.30;99.90;;;;;;4997469;28;20215;-84
2024/04/01 01:48:09;;;;;;;1.83;1.20;;;11.40;99.90;;;;;;4997283;28;20226;-84
2024/04/01 01:50:34;;;;;;;1.83;1.13;;;11.30;99.90;;;;;;4996912;28;20576;-85
2024/04/01 01:53:00;;;;;;;2.90;1.10;;;11.30;99.90;;;;;;5030451;28;20522;-85
2024/04/01 01:55:27;;;;;;;1.77;0.90;;;11.30;99.90;;;;;;4996888;28;20625;-85
2024/04/01 01:57:52;;;;;;;2.70;1.30;;;11.20;99.90;;;;;;4997008;28;20171;-84
2024/04/01 02:00:18;;;;;;;1.73;1.03;;;11.20;99.90;;;;;;4998854;28;20245;-83
2024/04/01 02:02:44;;;;;;;2.30;1.17;;;11.20;99.90;;;;;;5029362;28;20171;-84
2024/04/01 02:05:10;;;;;;;2.53;1.27;;;11.10;99.90;;;;;;4996986;28;20179;-86
2024/04/01 02:07:36;;;;;;;5.00;1.50;;;11.20;99.90;;;;;;4997708;28;20181;-83
2024/04/01 02:10:03;;;;;;;1.93;1.03;;;11.20;99.90;;;;;;4998440;28;20207;-84
2024/04/01 02:12:28;;;;;;;1.70;1.10;;;11.10;99.90;;;;;;4997925;28;20729;-84
2024/04/01 02:14:55;;;;;;;3.47;1.27;;;11.10;99.90;;;;;;4997132;28;20194;-85
2024/04/01 02:17:21;;;;;;;1.50;1.00;;;11.10;99.90;;;;;;4995196;28;20175;-83
2024/04/01 02:19:47;;;;;;;2.70;1.17;;;11.10;99.90;;;;;;4997919;28;20178;-85
2024/04/01 02:22:14;;;;;;;1.63;1.10;;;11.00;99.90;;;;;;5029324;28;20557;-84
2024/04/01 02:24:43;;;;;;;2.20;0.90;;;11.00;99.90;;;;;;4996122;28;20172;-84
2024/04/01 02:27:10;;;;;;;2.30;1.20;;;11.10;99.90;;;;;;4996556;28;20233;-85
2024/04/01 02:29:36;;;;;;;2.20;1.00;;;11.10;99.90;;;;;;4996940;28;20225;-85
2024/04/01 02:32:02;;;;;;;2.93;1.33;;;11.10;99.90;;;;;;4996072;28;20206;-83
2024/04/01 02:34:28;;;;;;;2.40;1.00;;;11.20;99.90;;;;;;4997012;28;20175;-83
2024/04/01 02:36:54;;;;;;;1.77;1.00;;;11.20;99.90;;;;;;4996699;28;20182;-84
2024/04/01 02:39:22;;;;;;;2.87;1.20;;;11.20;99.90;;;;;;5029863;28;20178;-84
2024/04/01 02:41:49;;;;;;;1.77;1.10;;;11.20;99.90;;;;;;4997693;28;20186;-83
2024/04/01 02:44:16;;;;;;;1.57;1.00;;;11.20;99.90;;;;;;4996864;28;20258;-84
2024/04/01 02:46:44;;;;;;;2.13;1.30;;;11.20;99.90;;;;;;4996596;28;20639;-83
2024/04/01 02:49:11;;;;;;;2.30;1.10;;;11.20;99.90;;;;;;4997060;28;20171;-83
2024/04/01 02:51:37;;;;;;;1.30;0.93;;;11.30;99.90;;;;;;4995213;28;20282;-83
2024/04/01 02:54:04;;;;;;;2.83;1.33;;;11.20;99.90;;;;;;4994197;28;20175;-84
2024/04/01 02:56:30;;;;;;;2.40;1.10;;;11.20;99.90;;;;;;4994244;28;20187;-85
2024/04/01 02:58:56;;;;;;;2.37;1.33;;;11.10;99.90;;;;;;4995324;28;20175;-83
2024/04/01 03:01:21;;;;;;;2.00;1.10;;;11.10;99.90;;;;;;4995710;28;20186;-86
2024/04/01 03:03:47;;;;;;;3.43;1.37;;;11.10;99.90;;;;;;4996325;28;20195;-84
2024/04/01 03:06:14;;;;;;;2.53;1.50;;;11.20;99.90;;;;;;5028812;28;20536;-85
2024/04/01 03:08:40;;;;;;;2.13;1.30;;;11.20;99.90;;;;;;4995716;28;20194;-84
2024/04/01 03:11:06;;;;;;;3.93;1.63;;;11.20;99.90;;;;;;5028086;28;20635;-84
2024/04/01 03:13:32;;;;;;;3.47;1.60;;;11.10;99.90;;;;;;4995152;28;20203;-85
2024/04/01 03:15:58;;;;;;;3.17;1.70;;;11.20;99.90;;;;;;4996434;28;20179;-85
2024/04/01 03:18:25;;;;;;;3.70;1.50;;;11.30;99.90;;;;;;4996988;28;20198;-84
2024/04/01 03:20:54;;;;;;;2.63;1.57;;;11.40;99.90;;;;;;4996277;28;20187;-84
2024/04/01 03:23:20;;;;;;;2.47;1.57;;;11.30;99.90;;;;;;4995925;28;20221;-84
2024/04/01 03:25:50;;;;;;;1.80;1.33;;;11.30;99.90;;;;;;4996397;28;20174;-84
2024/04/01 03:28:17;;;;;;;3.27;1.80;;;11.00;99.90;;;;;;4994760;28;20258;-84
2024/04/01 03:30:43;;;;;;;3.30;1.43;;;11.10;99.90;;;;;;4995674;28;20202;-83
2024/04/01 03:33:08;;;;;;;3.30;1.83;;;11.30;99.90;;;;;;4995128;28;20179;-84
2024/04/01 03:35:34;;;;;;;3.07;1.80;;;11.40;99.60;;;;;;4994687;28;20820;-83
2024/04/01 03:38:00;;;;;;;2.93;1.43;;;11.40;95.80;;;;;;4994194;28;20182;-84
2024/04/01 03:40:26;;;;;;;3.43;1.77;;;11.40;95.50;;;;;;5016740;28;20175;-84
2024/04/01 03:42:53;;;;;;;2.93;1.93;;;11.40;94.60;;;;;;5016821;28;20166;-83
2024/04/01 03:45:19;;;;;;;3.80;2.03;;;11.50;92.40;;;;;;5018118;28;20194;-84
2024/04/01 03:47:48;;;;;;;4.07;2.17;;;11.40;93.50;;;;;;4998585;28;20549;-85
2024/04/01 03:50:16;;;;;;;2.97;1.83;;;11.40;93.80;;;;;;4998217;28;20300;-83
2024/04/01 03:52:42;;;;;;;3.23;1.90;;;11.30;96.50;;;;;;4995595;28;20217;-84
2024/04/01 03:55:08;;;;;;;2.70;1.80;;;11.40;96.70;;;;;;4995301;28;20179;-84
2024/04/01 03:57:34;;;;;;;4.23;1.90;;;11.20;98.40;;;;;;4995082;28;20301;-83
2024/04/01 04:00:00;;;;;;;3.60;2.20;;;11.20;98.20;;;;;;4994840;28;20175;-84
2024/04/01 04:02:27;;;;;;;3.57;2.07;;;11.00;99.90;;;;;;5027937;28;20185;-84
2024/04/01 04:04:53;;;;;;;3.10;2.27;;;11.00;99.90;;;;;;4995807;28;20240;-84
2024/04/01 04:07:19;;;;;;;3.93;2.10;;;10.90;99.90;;;;;;4995462;28;20535;-83
2024/04/01 04:09:44;;;;;;;2.60;1.60;;;10.90;99.90;;;;;;4995141;28;20225;-83
2024/04/01 04:12:11;;;;;;;4.50;2.23;;;10.80;99.90;;;;;;4994966;28;20206;-84
2024/04/01 04:14:36;;;;;;;3.67;2.00;;;10.80;99.90;;;;;;4998051;28;20278;-84
2024/04/01 04:17:02;;;;;;;2.53;1.73;;;10.80;99.90;;;;;;4995609;28;20203;-85
2024/04/01 04:19:29;;;;;;;4.27;2.40;;;10.80;99.90;;;;;;4996085;28;20294;-84
2024/04/01 04:21:55;;;;;;;4.63;2.23;;;10.80;99.90;;;;;;4996055;28;20207;-84
2024/04/01 04:24:24;;;;;;;5.47;2.23;;;10.70;99.90;;;;;;4994817;28;20194;-84
2024/04/01 04:26:50;;;;;;;3.73;2.30;;;10.70;99.90;;;;;;4994592;28;20183;-83
2024/04/01 04:29:16;;;;;;;3.73;2.30;;;10.60;99.90;;;;;;4995528;28;20204;-84
2024/04/01 04:31:52;;;;;;;3.47;2.23;;;10.60;99.90;;;;;;4995322;28;20687;-84
2024/04/01 04:34:18;;;;;;;4.17;2.50;;;10.50;99.90;;;;;;4994421;28;20181;-82
2024/04/01 04:36:43;;;;;;;5.03;2.10;;;10.50;99.90;;;;;;4994358;28;20175;-84
2024/04/01 04:39:19;;;;;;;4.07;2.10;;;10.40;99.90;;;;;;4995345;28;20573;-84
2024/04/01 04:41:49;;;;;;;3.63;2.73;;;10.30;99.90;;;;;;5000776;28;20174;-84
2024/04/01 04:44:14;;;;;;;4.20;2.37;;;10.40;99.90;;;;;;5031606;28;20170;-84
2024/04/01 04:46:40;;;;;;;3.30;2.30;;;10.50;99.90;;;;;;4999562;28;20183;-86
2024/04/01 04:49:06;;;;;;;3.83;2.87;;;10.50;99.90;;;;;;4999685;28;20213;-84
2024/04/01 04:51:33;;;;;;;4.50;2.30;;;10.50;99.90;;;;;;5031860;28;20179;-85
2024/04/01 04:54:00;;;;;;;3.60;2.70;;;10.40;99.90;;;;;;4999197;28;20167;-85
2024/04/01 04:56:26;;;;;;;3.60;2.30;;;10.40;99.90;;;;;;4997452;28;20183;-84
2024/04/01 04:58:53;;;;;;;3.50;2.63;;;10.30;99.90;;;;;;4998446;28;20175;-85
2024/04/01 05:01:20;;;;;;;4.97;2.67;;;10.50;99.90;;;;;;4999265;28;20198;-84
2024/04/01 05:03:46;;;;;;;4.00;2.70;;;10.40;99.90;;;;;;4998255;28;20198;-83
2024/04/01 05:06:13;;;;;;;4.20;2.60;;;10.40;99.90;;;;;;4999642;28;20178;-84
2024/04/01 05:08:39;;;;;;;4.23;2.67;;;10.30;99.90;;;;;;4999690;28;20314;-85
2024/04/01 05:11:07;;;;;;;3.10;2.60;;;10.30;99.90;;;;;;4998549;28;20675;-83
2024/04/01 05:13:36;;;;;;;3.90;2.50;;;10.40;99.90;;;;;;4998112;28;20198;-85
2024/04/01 05:16:06;;;;;;;3.67;2.83;;;10.30;99.90;;;;;;4997170;28;20635;-85
2024/04/01 05:18:33;;;;;;;4.73;2.93;;;10.20;99.90;;;;;;4997516;28;20179;-83
2024/04/01 05:20:59;;;;;;;3.43;2.77;;;10.30;99.90;;;;;;4997731;28;20182;-85
2024/04/01 05:23:25;;;;;;;3.77;2.80;;;10.20;99.90;;;;;;4998703;28;20175;-85
2024/04/01 05:25:50;;;;;;;3.87;2.73;;;10.10;99.90;;;;;;4998241;28;20230;-84
2024/04/01 05:28:17;;;;;;;5.30;3.07;;;10.30;99.90;;;;;;4998177;28;20713;-84
2024/04/01 05:30:42;;;;;;;5.97;3.63;;;10.30;99.90;;;;;;4998115;28;20803;-84
2024/04/01 05:33:08;;;;;;;4.33;3.00;;;10.40;99.90;;;;;;5032137;28;20293;-84
2024/04/01 05:35:37;;;;;;;5.37;3.40;;;10.40;99.90;;;;;;4997354;28;20563;-84
2024/04/01 05:38:07;;;;;;;4.57;3.27;;;10.50;99.90;;;;;;5030310;28;20185;-84
2024/04/01 05:40:34;;;;;;;3.60;2.73;;;10.50;99.90;;;;;;4996760;28;20175;-84
2024/04/01 05:42:59;;;;;;;5.47;3.10;;;10.40;99.90;;;;;;4996168;28;20188;-84
2024/04/01 05:45:25;;;;;;;4.17;3.33;;;10.60;99.90;;;;;;4996289;28;20194;-84
2024/04/01 05:47:52;;;;;;;3.77;3.00;;;10.50;99.90;;;;;;4997020;28;20237;-83
2024/04/01 05:50:20;;;;;;;3.53;2.70;;;10.40;99.90;;;;;;4996421;28;20297;-82
2024/04/01 05:52:46;;;;;;;4.40;3.07;;;10.40;99.90;;;;;;5029373;28;20199;-84
2024/04/01 05:55:12;;;;;;;5.10;3.37;;;10.50;99.90;;;;;;5029922;28;20203;-83
2024/04/01 05:57:39;;;;;;;3.97;2.90;;;10.60;99.90;;;;;;4996359;28;20230;-84
2024/04/01 06:00:06;;;;;;;4.50;3.30;;;10.70;99.90;;;;;;4996096;28;20300;-84
2024/04/01 06:02:31;;;;;;;4.50;3.20;;;10.80;99.90;;;;;;4995679;28;20179;-86
2024/04/01 06:04:57;;;;;;;5.33;3.23;;;10.70;99.90;;;;;;4996564;28;20706;-84
2024/04/01 06:07:23;;;;;;;6.73;3.50;;;10.60;99.90;;;;;;5029453;28;20167;-84
2024/04/01 06:09:48;;;;;;;4.10;2.87;;;10.60;99.90;;;;;;4997921;28;20199;-84
2024/04/01 06:12:14;;;;;;;5.97;3.30;;;10.60;99.90;;;;;;4994728;28;20191;-84
2024/04/01 06:14:40;;;;;;;5.50;3.50;;;10.50;99.90;;;;;;4995084;28;20635;-84
2024/04/01 06:17:05;;;;;;;5.33;2.90;;;10.50;99.90;;;;;;4995151;28;20179;-85
2024/04/01 06:19:31;;;;;;;3.43;2.93;;;10.70;99.90;;;;;;4995972;28;20179;-85
2024/04/01 06:21:57;;;;;;;3.63;2.90;;;10.60;99.90;;;;;;4995370;28;20236;-85
2024/04/01 06:24:22;;;;;;;4.40;3.13;;;10.60;99.90;;;;;;4997392;28;20224;-84
2024/04/01 06:26:48;;;;;;;6.53;3.07;;;10.50;99.90;;;;;;4995716;28;20670;-84
2024/04/01 06:29:14;;;;;;;3.93;3.03;;;10.60;99.90;;;;;;4996085;28;20202;-84
2024/04/01 06:31:40;;;;;;;3.90;2.80;;;10.70;99.90;;;;;;4996272;28;20183;-83
2024/04/01 06:34:05;;;;;;;4.13;2.87;;;10.60;99.90;;;;;;5004370;28;20210;-83
2024/04/01 06:36:32;;;;;;;4.37;2.83;;;10.60;99.90;;;;;;5010813;28;20250;-84
2024/04/01 06:38:58;;;;;;;4.90;3.23;;;10.70;99.90;;;;;;5006926;28;20266;-84
2024/04/01 06:41:24;;;;;;;5.17;3.00;;;10.80;99.40;;;;;;5007867;28;20283;-84
2024/04/01 06:43:52;;;;;;;4.90;2.90;;;10.80;98.50;;;;;;5001777;28;20191;-84
2024/04/01 06:46:18;;;;;;;3.23;2.70;;;10.70;99.10;;;;;;4996883;28;20194;-83
2024/04/01 06:48:46;;;;;;;4.27;2.80;;;10.70;99.10;;;;;;4996033;28;20237;-84
2024/04/01 06:51:12;;;;;;;4.57;2.47;;;10.70;99.90;;;;;;4995752;28;20301;-84
2024/04/01 06:53:37;;;;;;;4.73;3.07;;;10.70;99.90;;;;;;4995598;28;20651;-84
2024/04/01 06:56:03;;;;;;;4.67;2.90;;;10.60;99.90;;;;;;4996422;28;20269;-84
2024/04/01 06:58:29;;;;;;;4.07;2.67;;;10.60;99.90;;;;;;4995623;28;20178;-83
2024/04/01 07:00:55;;;;;;;4.67;2.70;;;10.60;99.90;;;;;;4995623;28;20273;-85
2024/04/01 07:03:20;;;;;;;3.80;2.53;;;10.60;99.90;;;;;;5028443;28;20277;-83
2024/04/01 07:05:46;;;;;;;4.63;2.80;;;10.70;99.90;;;;;;4996374;28;20258;-85
2024/04/01 07:08:12;;;;;;;4.40;2.63;;;10.80;98.10;;;;;;4996328;28;20674;-85
2024/04/01 07:10:37;;;;;;;4.77;2.60;;;10.80;93.20;;;;;;4995378;28;20211;-85
2024/04/01 07:13:03;;;;;;;4.20;2.53;;;10.90;87.30;;;;;;4994525;28;20715;-84
2024/04/01 07:15:29;;;;;;;4.03;3.00;;;10.80;87.00;;;;;;4996624;28;20186;-84
2024/04/01 07:17:54;;;;;;;3.57;2.60;;;10.80;90.30;;;;;;4995496;28;20652;-84
2024/04/01 07:20:20;;;;;;;3.33;2.60;;;10.70;92.50;;;;;;4994442;28;20210;-87
2024/04/01 07:22:48;;;;;;;4.13;2.70;;;10.70;92.60;;;;;;4995229;28;20202;-85
2024/04/01 07:25:14;;;;;;;3.70;2.70;;;10.80;86.90;;;;;;4994686;28;20175;-85
2024/04/01 07:27:39;;;;;;;3.70;2.20;;;10.70;90.50;;;;;;4995225;28;20197;-84
2024/04/01 07:30:07;;;;;;;4.60;2.63;;;10.60;93.70;;;;;;4995369;28;20218;-84
2024/04/01 07:32:33;;;;;;;5.03;3.23;;;10.60;94.50;;;;;;4994878;28;20179;-85
2024/04/01 07:34:59;;;;;;;3.47;2.63;;;10.80;92.70;;;;;;4994968;28;20171;-84
2024/04/01 07:37:26;;;;;;;4.63;2.63;;;10.60;90.30;;;;;;4995579;28;20198;-85
2024/04/01 07:39:54;;;;;;;3.97;2.40;;;10.70;91.00;;;;;;4994223;28;20185;-85
2024/04/01 07:42:20;;;;;;;5.53;2.90;;;10.60;91.00;;;;;;4994185;28;20173;-85
2024/04/01 07:44:47;;;;;;;5.13;3.00;;;10.70;88.30;;;;;;4994545;28;20540;-84
2024/04/01 07:47:12;;;;;;;5.73;2.77;;;10.80;87.90;;;;;;4994989;28;20241;-84
2024/04/01 07:49:38;;;;;;;3.80;2.70;;;10.80;85.80;;;;;;4993803;28;20671;-87
2024/04/01 07:52:05;;;;;;;5.23;2.50;;;10.90;81.60;;;;;;4994153;28;20202;-85
2024/04/01 07:54:30;;;;;;;5.47;2.10;;;11.00;77.40;;;;;;4994322;28;20182;-83
2024/04/01 07:57:02;;;;;;;4.40;2.80;;;10.90;73.10;;;;;;4994124;28;20179;-84
2024/04/01 07:59:34;;;;;;;6.30;2.67;;;11.00;68.40;;;;;;5026937;28;20171;-86
2024/04/01 08:02:00;;;;;;;3.90;2.63;;;11.00;75.30;;;;;;4994429;28;20227;-84
2024/04/01 08:04:27;;;;;;;4.50;2.23;;;10.90;72.80;;;;;;4995082;28;20210;-84
2024/04/01 08:06:54;;;;;;;3.63;2.50;;;10.90;72.50;;;;;;4994307;28;20213;-84
2024/04/01 08:09:20;;;;;;;4.37;2.80;;;11.00;74.00;;;;;;4994199;28;20566;-85
2024/04/01 08:11:47;;;;;;;5.67;2.80;;;10.90;63.10;;;;;;4994378;28;20202;-84
2024/04/01 08:14:12;;;;;;;4.47;2.60;;;11.10;62.40;;;;;;4993715;28;20183;-85
2024/04/01 08:16:38;;;;;;;2.83;2.40;;;11.10;61.70;;;;;;4994745;28;20182;-83
2024/04/01 08:19:04;;;;;;;5.27;2.70;;;11.20;58.50;;;;;;4993934;28;20225;-84
2024/04/01 08:21:30;;;;;;;4.67;2.97;;;11.20;55.30;;;;;;4994287;28;20185;-86
2024/04/01 08:23:56;;;;;;;3.87;2.30;;;11.40;43.50;;;;;;5026933;28;20228;-85
2024/04/01 08:26:22;;;;;;;3.40;2.63;;;11.60;33.80;;;;;;4994084;28;20620;-84
2024/04/01 08:28:51;;;;;;;4.30;2.33;;;11.40;39.40;;;;;;4995403;28;20171;-84
2024/04/01 08:31:18;;;;;;;4.67;2.40;;;11.30;41.40;;;;;;4993827;28;20219;-85
2024/04/01 08:33:45;;;;;;;5.03;2.80;;;11.30;45.60;;;;;;4995653;28;20174;-84
2024/04/01 08:36:11;;;;;;;4.53;2.57;;;11.30;42.00;;;;;;4995618;28;20179;-84
2024/04/01 08:38:36;;;;;;;3.63;2.10;;;11.20;45.60;;;;;;4994261;28;20202;-84
2024/04/01 08:41:28;;;;;;;4.57;2.23;;;11.20;47.50;;;;;;4994770;28;20562;-84
2024/04/01 08:44:04;;;;;;;5.57;2.20;;;11.30;40.80;;;;;;4993474;28;20203;-85
2024/04/01 08:46:32;;;;;;;5.60;2.57;;;11.30;41.00;;;;;;4994240;28;20178;-84
2024/04/01 08:49:01;;;;;;;4.33;2.40;;;11.40;39.60;;;;;;4993694;28;20186;-84
2024/04/01 08:51:32;;;;;;;4.13;2.77;;;11.40;37.90;;;;;;4993646;28;20280;-84
2024/04/01 08:54:01;;;;;;;3.27;2.23;;;11.50;34.10;;;;;;4994057;28;20175;-84
2024/04/01 08:56:29;;;;;;;4.10;2.20;;;11.40;32.10;;;;;;4993153;28;20276;-85
2024/04/01 08:58:59;;;;;;;4.53;2.30;;;11.40;32.40;;;;;;4992773;28;20617;-86
2024/04/01 09:01:25;;;;;;;3.73;1.97;;;11.40;40.90;;;;;;4993406;28;20187;-85
2024/04/01 09:03:52;;;;;;;4.37;2.20;;;11.40;39.80;;;;;;4992908;28;20187;-86
2024/04/01 09:06:20;;;;;;;4.00;2.23;;;11.50;34.20;;;;;;4992402;28;20202;-84
2024/04/01 09:08:48;;;;;;;3.07;2.20;;;11.40;35.00;;;;;;4993616;28;20175;-84
2024/04/01 09:11:14;;;;;;;4.00;2.20;;;11.50;31.60;;;;;;4993903;28;20622;-84
2024/04/01 09:13:40;;;;;;;3.17;2.30;;;11.50;34.60;;;;;;4994161;28;20183;-85
2024/04/01 09:16:10;;;;;;;4.03;1.90;;;11.60;33.10;;;;;;4993566;28;20654;-84
2024/04/01 09:18:36;;;;;;;3.67;1.93;;;11.60;34.20;;;;;;4994205;28;20626;-85
2024/04/01 09:21:04;;;;;;;4.13;2.30;;;11.70;30.90;;;;;;4992724;28;20194;-84
2024/04/01 09:23:40;;;;;;;4.13;2.20;;;11.80;26.90;;;;;;4993026;28;20214;-84
2024/04/01 09:26:07;;;;;;;4.37;2.37;;;11.70;23.90;;;;;;5002863;28;20245;-83
2024/04/01 09:28:33;;;;;;;3.77;1.90;;;11.90;24.40;;;;;;5015055;28;20250;-84
2024/04/01 09:30:59;;;;;;;3.97;2.23;;;11.90;22.10;;;;;;5007186;28;20211;-84
2024/04/01 09:33:27;;;;;;;5.67;2.10;;;12.00;20.00;;;;;;5007271;28;20674;-83
2024/04/01 09:35:54;;;;;;;3.93;1.90;;;12.10;13.90;;;;;;4998608;28;20183;-83
2024/04/01 09:38:22;;;;;;;5.37;2.00;;;12.20;12.00;;;;;;4998205;28;20210;-84
2024/04/01 09:40:56;;;;;;;4.07;2.10;;;12.10;3.90;;;;;;4997510;28;20225;-83
2024/04/01 09:43:26;;;;;;;3.90;1.97;;;12.20;6.80;;;;;;4997141;28;20214;-85
2024/04/01 09:45:52;;;;;;;2.80;2.03;;;12.20;1.00;;;;;;4996801;28;20190;-85
2024/04/01 09:48:22;;;;;;;3.43;1.83;;;12.20;1.00;;;;;;4997228;28;20241;-85
2024/04/01 09:50:49;;;;;;;5.37;1.80;;;12.20;1.00;;;;;;5031383;28;20576;-84
2024/04/01 09:53:16;;;;;;;2.67;1.77;;;12.20;1.00;;;;;;4997174;28;20225;-85
2024/04/01 09:55:58;;;;;;;4.20;2.30;;;12.20;1.00;;;;;;4996598;28;20636;-84
2024/04/01 09:58:34;;;;;;;4.37;2.30;;;12.30;1.00;;;;;;4996136;28;20182;-84
2024/04/01 10:01:38;;;;;;;3.87;1.93;;;12.40;1.00;;;;;;5011874;28;20198;-85
2024/04/01 10:04:19;;;;;;;4.77;2.03;;;12.40;1.00;;;;;;5011806;28;20194;-86
2024/04/01 10:07:03;;;;;;;4.50;2.30;;;12.50;1.00;;;;;;4995067;28;20175;-84
2024/04/01 10:09:44;;;;;;;2.93;2.03;;;12.60;1.00;;;;;;5012048;28;20190;-83
2024/04/01 10:12:47;;;;;;;2.83;1.87;;;12.50;1.00;;;;;;5012870;28;20249;-84
2024/04/01 10:16:01;;;;;;;3.27;2.07;;;12.60;1.00;;;;;;5012713;28;20634;-83
2024/04/01 10:19:06;;;;;;;2.73;2.10;;;12.70;1.00;;;;;;4995348;28;20647;-83
2024/04/01 10:21:53;;;;;;;3.73;2.40;;;12.60;1.00;;;;;;4996210;28;20181;-84
2024/04/01 10:25:02;;;;;;;4.60;2.57;;;12.70;1.00;;;;;;5012560;28;20180;-84
2024/04/01 10:27:52;;;;;;;2.87;1.90;;;12.70;1.00;;;;;;4996204;28;20637;-85
2024/04/01 10:30:33;;;;;;;3.07;2.10;;;12.70;1.00;;;;;;5012579;28;20209;-84
2024/04/01 10:33:36;;;;;;;6.13;1.70;;;12.70;1.00;;;;;;5012918;28;20817;-86
2024/04/01 10:36:26;;;;;;;3.40;1.63;;;12.90;1.00;;;;;;5012699;28;20176;-85
2024/04/01 10:39:07;;;;;;;2.87;1.90;;;12.90;1.00;;;;;;5012158;28;20182;-86
2024/04/01 10:41:42;;;;;;;3.33;1.80;;;12.90;1.00;;;;;;5012316;28;20178;-85
2024/04/01 10:44:36;;;;;;;4.27;1.93;;;13.00;1.00;;;;;;5012331;28;20193;-85
2024/04/01 10:47:39;;;;;;;3.03;1.50;;;13.00;1.00;;;;;;5012222;28;20274;-84
2024/04/01 10:50:17;;;;;;;2.37;1.70;;;13.10;1.00;;;;;;4994951;28;20225;-84
2024/04/01 10:53:03;;;;;;;4.27;1.83;;;13.30;1.00;;;;;;5012293;28;20228;-83
2024/04/01 10:56:05;;;;;;;2.20;1.70;;;13.40;1.00;;;;;;4996040;28;20172;-84
2024/04/01 10:58:46;;;;;;;4.20;1.83;;;13.40;1.00;;;;;;4995752;28;20183;-84
2024/04/01 11:01:35;;;;;;;3.27;1.67;;;13.40;1.00;;;;;;5012323;28;20191;-86
2024/04/01 11:04:06;;;;;;;3.33;1.80;;;13.60;1.00;;;;;;5012291;28;20241;-85
2024/04/01 11:06:45;;;;;;;1.93;1.63;;;13.80;1.00;;;;;;5012577;28;20199;-85
2024/04/01 11:09:23;;;;;;;2.30;1.50;;;14.00;1.00;;;;;;5028197;28;20187;-84
2024/04/01 11:12:14;;;;;;;2.17;1.30;;;14.20;1.00;;;;;;4996389;28;20663;-84
2024/04/01 11:14:40;;;;;;;2.93;1.50;;;14.20;1.00;;;;;;5011949;28;20193;-84
2024/04/01 11:17:07;;;;;;;3.23;1.73;;;14.20;1.00;;;;;;4995411;28;20176;-83
2024/04/01 11:19:51;;;;;;;3.17;1.33;;;14.20;1.00;;;;;;4995609;28;20212;-85
2024/04/01 11:22:29;;;;;;;1.73;1.00;;;14.30;1.00;;;;;;4996395;28;20173;-84
2024/04/01 11:25:11;;;;;;;4.13;1.30;;;14.00;1.00;;;;;;4995345;28;20216;-84
2024/04/01 11:28:21;;;;;;;1.50;0.90;;;14.00;1.00;;;;;;4994904;28;20178;-84
2024/04/01 11:31:23;;;;;;;2.10;1.07;;;13.90;1.00;;;;;;4996399;28;20293;-85
2024/04/01 11:33:56;;;;;;;1.80;1.03;;;13.80;1.00;;;;;;4995000;28;20274;-86
2024/04/01 11:36:28;;;;;;;1.90;0.80;;;13.80;1.00;;;;;;4994501;28;20666;-85
2024/04/01 11:39:10;;;;;;;2.10;0.93;;;13.80;1.00;;;;;;4995052;28;20205;-85
2024/04/01 11:41:41;;;;;;;2.97;1.10;;;13.80;1.00;;;;;;4995050;28;20191;-85
2024/04/01 11:44:08;;;;;;;3.27;1.03;;;13.90;1.00;;;;;;4994686;28;20266;-86
2024/04/01 11:46:36;;;;;;;1.60;0.90;;;14.10;1.00;;;;;;4994985;28;20192;-86
2024/04/01 11:49:02;;;;;;;2.20;0.90;;;14.20;1.00;;;;;;4996128;28;20275;-86
2024/04/01 11:51:35;;;;;;;2.33;1.10;;;14.30;1.00;;;;;;4994493;28;20221;-86
2024/04/01 11:54:01;;;;;;;2.57;1.03;;;14.30;1.00;;;;;;4994124;28;20180;-86
2024/04/01 11:56:40;;;;;;;1.97;0.77;;;14.30;1.00;;;;;;4993980;28;20185;-84
2024/04/01 11:59:09;;;;;;;1.53;0.80;;;14.30;1.00;;;;;;4994647;28;20208;-86
2024/04/01 12:01:36;;;;;;;2.80;0.90;;;14.30;1.00;;;;;;4994586;28;20175;-83
2024/04/01 12:04:04;;;;;;;3.90;0.97;;;14.40;1.00;;;;;;4993392;28;20742;-85
2024/04/01 12:06:31;;;;;;;2.93;1.03;;;14.40;1.00;;;;;;4993602;28;20246;-84
2024/04/01 12:09:03;;;;;;;1.47;0.80;;;14.50;1.00;;;;;;5026678;28;20174;-84
2024/04/01 12:11:30;;;;;;;3.27;1.00;;;14.60;1.00;;;;;;4993482;28;20316;-83
2024/04/01 12:13:56;;;;;;;3.27;0.90;;;14.80;1.00;;;;;;4993509;28;20197;-84
2024/04/01 12:16:22;;;;;;;2.80;1.30;;;14.90;1.00;;;;;;5001257;28;20177;-85
2024/04/01 12:18:49;;;;;;;3.03;1.17;;;14.90;1.00;;;;;;5017310;28;20161;-84
2024/04/01 12:21:20;;;;;;;2.10;0.93;;;15.00;1.00;;;;;;5016717;28;20185;-84
2024/04/01 12:23:49;;;;;;;3.30;0.90;;;14.80;1.00;;;;;;5015456;28;20206;-84
2024/04/01 12:26:18;;;;;;;2.10;0.90;;;14.90;1.00;;;;;;5038610;28;20185;-85
2024/04/01 12:28:57;;;;;;;1.97;0.80;;;15.10;1.00;;;;;;4995608;28;20167;-85
2024/04/01 12:31:36;;;;;;;2.07;0.87;;;15.40;1.00;;;;;;4994345;28;20629;-83
2024/04/01 12:34:02;;;;;;;1.67;0.80;;;15.50;1.00;;;;;;4993613;28;20175;-85
2024/04/01 12:36:28;;;;;;;2.67;0.80;;;15.80;99.90;;;;;;5026096;28;20726;-84
2024/04/01 12:38:57;;;;;;;2.90;1.20;;;16.00;1.00;;;;;;4993468;28;20185;-84
2024/04/01 12:41:26;;;;;;;2.97;1.00;;;15.90;1.00;;;;;;4994248;28;20225;-85
2024/04/01 12:43:54;;;;;;;4.93;0.73;;;16.00;1.00;;;;;;4994355;28;20183;-84
2024/04/01 12:46:22;;;;;;;2.37;0.87;;;15.90;1.00;;;;;;4995525;28;20322;-85
2024/04/01 12:48:53;;;;;;;2.13;1.00;;;15.80;1.00;;;;;;4994506;28;20545;-84
2024/04/01 12:51:24;;;;;;;2.77;0.83;;;15.30;1.00;;;;;;4994509;28;20222;-83
2024/04/01 12:53:50;;;;;;;5.43;0.80;;;15.50;1.00;;;;;;4994441;28;20175;-85
2024/04/01 12:56:42;;;;;;;2.40;0.80;;;15.60;1.00;;;;;;5010852;28;20245;-85
2024/04/01 12:59:22;;;;;;;2.57;0.83;;;15.80;1.00;;;;;;5010876;28;20183;-84
2024/04/01 13:02:09;;;;;;;3.93;1.20;;;15.90;1.00;;;;;;5013286;28;20179;-84